Time;durP1;ratioP1;P1;durP2;ratioP2;P2;SDS_P1;SDS_P2;PMS_P1;PMS_P2;Temp;Humidity;BMP_temperature;BMP_pressure;BME280_temperature;BME280_humidity;BME280_pressure;Samples;Min_cycle;Max_cycle;Signal;HPM_P1;HPM_P2
2023/07/23 00:02:11;;;;;;;7.43;4.18;;;18.80;99.90;;;;;;4996853;28;20022;-71
2023/07/23 00:04:36;;;;;;;10.70;4.00;;;18.90;99.90;;;;;;4997538;28;20085;-71
2023/07/23 00:07:02;;;;;;;10.85;5.78;;;18.80;99.90;;;;;;5000942;28;20022;-70
2023/07/23 00:09:27;;;;;;;12.18;5.15;;;18.80;99.90;;;;;;5003094;28;20027;-71
2023/07/23 00:11:53;;;;;;;9.98;5.13;;;18.80;99.90;;;;;;5003858;28;20026;-71
2023/07/23 00:14:19;;;;;;;8.65;4.07;;;18.80;99.90;;;;;;5003281;28;20026;-70
2023/07/23 00:16:45;;;;;;;11.85;4.35;;;18.80;99.90;;;;;;5003398;28;20053;-70
2023/07/23 00:19:15;;;;;;;7.20;4.13;;;18.70;99.90;;;;;;5003274;28;20022;-70
2023/07/23 00:21:41;;;;;;;8.90;4.28;;;18.80;99.90;;;;;;5003963;28;20047;-70
2023/07/23 00:24:07;;;;;;;10.98;4.03;;;18.80;99.90;;;;;;5003950;28;20022;-71
2023/07/23 00:26:33;;;;;;;7.28;4.15;;;18.80;99.90;;;;;;5003207;28;20125;-71
2023/07/23 00:28:59;;;;;;;8.88;3.90;;;18.80;99.90;;;;;;5003091;28;20109;-71
2023/07/23 00:31:24;;;;;;;8.15;4.10;;;18.80;99.90;;;;;;5003420;28;20068;-70
2023/07/23 00:33:50;;;;;;;7.40;3.85;;;18.70;99.90;;;;;;5003807;28;20053;-70
2023/07/23 00:36:15;;;;;;;7.38;3.90;;;18.70;99.90;;;;;;5003279;28;20029;-71
2023/07/23 00:38:41;;;;;;;8.10;3.95;;;18.70;99.90;;;;;;5003311;28;20049;-71
2023/07/23 00:41:07;;;;;;;11.77;4.30;;;18.70;99.90;;;;;;5002822;28;20019;-70
2023/07/23 00:43:33;;;;;;;9.40;4.15;;;18.70;99.90;;;;;;5003093;28;20096;-70
2023/07/23 00:45:58;;;;;;;8.52;4.78;;;18.60;99.90;;;;;;5003069;28;20093;-71
2023/07/23 00:48:25;;;;;;;9.18;4.10;;;18.60;99.90;;;;;;5003641;28;20019;-70
2023/07/23 00:50:50;;;;;;;6.85;3.95;;;18.40;99.90;;;;;;5003574;28;20031;-70
2023/07/23 00:53:16;;;;;;;5.72;3.58;;;18.30;99.90;;;;;;5002682;28;20057;-70
2023/07/23 00:55:43;;;;;;;10.35;3.75;;;18.40;99.90;;;;;;5002782;28;20030;-70
2023/07/23 00:58:08;;;;;;;6.95;3.63;;;18.50;99.90;;;;;;5003057;28;20026;-70
2023/07/23 01:00:34;;;;;;;7.35;3.85;;;18.50;99.90;;;;;;5002709;28;20097;-70
2023/07/23 01:02:59;;;;;;;7.35;3.85;;;18.60;99.90;;;;;;5002666;28;20030;-70
2023/07/23 01:05:26;;;;;;;7.45;4.20;;;18.60;99.90;;;;;;5002605;28;20061;-70
2023/07/23 01:07:52;;;;;;;11.30;3.92;;;18.60;99.90;;;;;;5003099;28;20022;-70
2023/07/23 01:10:20;;;;;;;10.63;3.88;;;18.60;99.90;;;;;;5003244;28;20077;-70
2023/07/23 01:12:45;;;;;;;8.07;4.43;;;18.50;99.90;;;;;;5002943;28;20030;-70
2023/07/23 01:15:11;;;;;;;9.05;3.83;;;18.50;99.90;;;;;;5002870;28;20044;-70
2023/07/23 01:17:38;;;;;;;8.05;4.13;;;18.40;99.90;;;;;;5001136;28;20026;-71
2023/07/23 01:20:05;;;;;;;11.40;4.30;;;18.40;99.90;;;;;;4999851;28;20034;-70
2023/07/23 01:22:36;;;;;;;6.82;4.13;;;18.50;99.90;;;;;;5000218;28;20022;-70
2023/07/23 01:25:03;;;;;;;7.13;4.25;;;18.50;99.90;;;;;;4999451;28;20145;-71
2023/07/23 01:27:28;;;;;;;10.93;4.45;;;18.50;99.90;;;;;;4999513;28;20034;-71
2023/07/23 01:29:54;;;;;;;11.88;4.88;;;18.40;99.90;;;;;;4999897;28;20026;-71
2023/07/23 01:32:20;;;;;;;10.25;4.32;;;18.40;99.90;;;;;;4999390;28;20033;-71
2023/07/23 01:34:45;;;;;;;9.25;4.68;;;18.40;99.90;;;;;;4999472;28;20030;-71
2023/07/23 01:37:12;;;;;;;7.40;3.92;;;18.30;99.90;;;;;;5000049;28;20054;-71
2023/07/23 01:39:38;;;;;;;9.18;4.50;;;18.20;99.90;;;;;;4999863;28;20034;-71
2023/07/23 01:42:04;;;;;;;9.90;4.00;;;18.20;99.90;;;;;;4999303;28;20022;-70
2023/07/23 01:44:30;;;;;;;12.40;4.00;;;18.30;99.90;;;;;;4999216;28;20018;-71
2023/07/23 01:46:55;;;;;;;7.53;3.80;;;18.20;99.90;;;;;;4999078;28;20076;-71
2023/07/23 01:49:21;;;;;;;6.60;3.85;;;18.30;99.90;;;;;;4999281;28;20033;-71
2023/07/23 01:51:46;;;;;;;9.98;4.22;;;18.40;99.90;;;;;;4999073;28;20026;-71
2023/07/23 01:54:12;;;;;;;5.93;3.55;;;18.40;99.90;;;;;;4999227;28;20109;-71
2023/07/23 01:56:37;;;;;;;7.45;4.30;;;18.30;99.90;;;;;;4999268;28;20090;-71
2023/07/23 01:59:04;;;;;;;6.80;3.63;;;18.20;99.90;;;;;;4999302;28;20050;-70
2023/07/23 02:01:30;;;;;;;10.63;4.10;;;18.20;99.90;;;;;;4999406;28;20030;-70
2023/07/23 02:03:55;;;;;;;7.00;3.88;;;18.20;99.90;;;;;;4998552;28;20029;-71
2023/07/23 02:06:21;;;;;;;8.38;3.67;;;18.20;99.90;;;;;;4999752;28;20025;-70
2023/07/23 02:08:47;;;;;;;8.02;3.83;;;18.20;99.90;;;;;;4999410;28;20026;-70
2023/07/23 02:11:12;;;;;;;6.40;3.40;;;18.20;99.90;;;;;;4999087;28;20031;-70
2023/07/23 02:13:38;;;;;;;6.13;3.65;;;18.10;99.90;;;;;;4998819;28;20104;-70
2023/07/23 02:16:03;;;;;;;6.85;3.35;;;18.00;99.90;;;;;;4999339;28;20030;-70
2023/07/23 02:18:29;;;;;;;7.32;3.95;;;18.00;99.90;;;;;;4998438;28;20030;-70
2023/07/23 02:20:55;;;;;;;5.45;3.33;;;18.00;99.90;;;;;;4999236;28;20027;-70
2023/07/23 02:23:21;;;;;;;8.80;3.95;;;18.10;99.90;;;;;;4998465;28;20032;-70
2023/07/23 02:25:50;;;;;;;10.65;3.28;;;18.10;99.90;;;;;;5002031;28;20089;-70
2023/07/23 02:28:16;;;;;;;5.18;3.47;;;18.20;99.90;;;;;;4999065;28;20018;-70
2023/07/23 02:30:42;;;;;;;4.05;2.90;;;18.10;99.90;;;;;;4998957;28;20023;-71
2023/07/23 02:33:07;;;;;;;10.10;3.60;;;18.10;99.90;;;;;;4998537;28;20033;-70
2023/07/23 02:35:37;;;;;;;8.60;3.63;;;18.10;99.90;;;;;;4998413;28;20088;-70
2023/07/23 02:38:03;;;;;;;6.05;3.53;;;18.10;99.90;;;;;;4998649;28;20026;-71
2023/07/23 02:40:34;;;;;;;4.97;3.20;;;18.00;99.90;;;;;;4998812;28;20030;-71
2023/07/23 02:43:00;;;;;;;9.95;3.72;;;17.80;99.90;;;;;;4997991;28;20027;-70
2023/07/23 02:45:26;;;;;;;8.10;3.17;;;17.70;99.90;;;;;;4998489;28;20026;-70
2023/07/23 02:47:52;;;;;;;10.57;3.25;;;17.70;99.90;;;;;;4998703;28;20080;-71
2023/07/23 02:50:17;;;;;;;9.57;3.72;;;17.60;99.90;;;;;;4998260;28;20053;-71
2023/07/23 02:52:43;;;;;;;9.27;3.60;;;17.60;99.90;;;;;;4998134;28;20034;-71
2023/07/23 02:55:09;;;;;;;5.05;3.08;;;17.70;99.90;;;;;;4998149;28;20041;-71
2023/07/23 02:57:34;;;;;;;4.85;3.00;;;17.70;99.90;;;;;;4998417;28;20022;-71
2023/07/23 03:00:00;;;;;;;7.68;3.25;;;17.70;99.90;;;;;;4998249;28;20026;-71
2023/07/23 03:02:25;;;;;;;7.43;3.33;;;17.70;99.90;;;;;;4997782;28;20026;-70
2023/07/23 03:04:51;;;;;;;7.57;3.50;;;17.70;99.90;;;;;;4997726;28;20025;-70
2023/07/23 03:07:16;;;;;;;5.47;3.50;;;17.60;99.90;;;;;;4997800;28;20029;-70
2023/07/23 03:09:42;;;;;;;9.20;3.58;;;17.60;99.90;;;;;;4997397;28;20077;-71
2023/07/23 03:12:09;;;;;;;7.63;3.22;;;17.60;99.90;;;;;;4997546;28;20023;-71
2023/07/23 03:14:35;;;;;;;5.65;3.30;;;17.60;99.90;;;;;;4997394;28;20033;-71
2023/07/23 03:17:01;;;;;;;9.02;3.53;;;17.60;99.90;;;;;;4997369;28;20117;-70
2023/07/23 03:19:26;;;;;;;6.38;3.42;;;17.60;99.90;;;;;;4997704;28;20037;-70
2023/07/23 03:21:52;;;;;;;6.20;3.45;;;17.50;99.90;;;;;;4997230;28;20032;-70
2023/07/23 03:24:17;;;;;;;5.57;3.03;;;17.50;99.90;;;;;;4997199;28;20027;-70
2023/07/23 03:26:43;;;;;;;8.63;3.65;;;17.40;99.90;;;;;;4997715;28;20022;-70
2023/07/23 03:29:08;;;;;;;7.13;3.40;;;17.40;99.90;;;;;;4997469;28;20024;-70
2023/07/23 03:31:34;;;;;;;5.32;3.03;;;17.40;99.90;;;;;;4997256;28;20030;-70
2023/07/23 03:33:59;;;;;;;9.43;3.88;;;17.30;99.90;;;;;;4997813;28;20015;-70
2023/07/23 03:36:26;;;;;;;5.78;3.50;;;17.30;99.90;;;;;;4997438;28;20162;-70
2023/07/23 03:38:52;;;;;;;6.53;3.75;;;17.30;99.90;;;;;;4997357;28;20030;-71
2023/07/23 03:41:18;;;;;;;11.70;3.55;;;17.30;99.90;;;;;;4996759;28;20019;-70
2023/07/23 03:43:43;;;;;;;8.75;3.42;;;17.30;99.90;;;;;;4997139;28;20034;-70
2023/07/23 03:46:09;;;;;;;8.07;3.60;;;17.20;99.90;;;;;;4997087;28;20029;-71
2023/07/23 03:48:34;;;;;;;7.85;3.63;;;17.20;99.90;;;;;;4996897;28;20041;-71
2023/07/23 03:51:00;;;;;;;5.50;3.10;;;17.10;99.90;;;;;;4997842;28;20022;-71
2023/07/23 03:53:25;;;;;;;6.10;3.33;;;17.00;99.90;;;;;;4997593;28;20030;-70
2023/07/23 03:55:51;;;;;;;10.77;4.10;;;16.90;99.90;;;;;;4997347;28;20093;-70
2023/07/23 03:58:17;;;;;;;9.23;3.42;;;16.90;99.90;;;;;;4996677;28;20030;-70
2023/07/23 04:00:42;;;;;;;8.70;3.83;;;16.90;99.90;;;;;;4997200;28;20022;-70
2023/07/23 04:03:08;;;;;;;7.68;3.65;;;17.00;99.90;;;;;;4996976;28;20034;-70
2023/07/23 04:05:33;;;;;;;6.57;3.35;;;17.00;99.90;;;;;;4996939;28;20018;-70
2023/07/23 04:07:59;;;;;;;5.82;3.05;;;16.90;99.90;;;;;;4997234;28;20118;-70
2023/07/23 04:10:25;;;;;;;5.47;2.97;;;16.90;99.90;;;;;;4996734;28;20025;-70
2023/07/23 04:12:50;;;;;;;7.28;3.28;;;16.70;99.90;;;;;;4996952;28;20023;-70
2023/07/23 04:15:16;;;;;;;9.90;3.40;;;16.70;99.90;;;;;;4996834;28;20034;-70
2023/07/23 04:17:41;;;;;;;11.57;3.75;;;16.80;99.90;;;;;;4996709;28;20095;-71
2023/07/23 04:20:07;;;;;;;6.60;3.53;;;16.80;99.90;;;;;;4997160;28;20034;-71
2023/07/23 04:22:33;;;;;;;6.25;3.67;;;16.80;99.90;;;;;;4997379;28;20030;-71
2023/07/23 04:24:58;;;;;;;6.70;3.53;;;16.90;99.90;;;;;;5010659;23;20129;-68
2023/07/23 04:27:24;;;;;;;6.90;3.28;;;17.00;99.90;;;;;;4996699;28;20093;-68
2023/07/23 04:29:49;;;;;;;7.20;3.50;;;17.10;99.90;;;;;;4996363;28;20111;-68
2023/07/23 04:32:15;;;;;;;7.53;3.83;;;17.10;99.90;;;;;;4997302;28;20031;-68
2023/07/23 04:34:41;;;;;;;8.93;3.47;;;17.20;99.90;;;;;;4997214;28;20026;-68
2023/07/23 04:37:07;;;;;;;9.77;3.65;;;17.20;99.90;;;;;;4996428;28;20030;-67
2023/07/23 04:39:32;;;;;;;10.57;4.05;;;17.20;99.90;;;;;;4996658;28;20026;-68
2023/07/23 04:41:58;;;;;;;7.65;4.03;;;17.20;99.90;;;;;;4997000;28;20037;-68
2023/07/23 04:44:23;;;;;;;6.25;3.28;;;17.30;99.90;;;;;;4997482;28;20018;-68
2023/07/23 04:46:49;;;;;;;5.95;3.67;;;17.30;99.90;;;;;;4996278;28;20022;-68
2023/07/23 04:49:14;;;;;;;7.43;3.50;;;17.30;99.90;;;;;;4996170;28;20030;-68
2023/07/23 04:51:40;;;;;;;4.60;3.10;;;17.30;99.90;;;;;;4997149;28;20033;-68
2023/07/23 04:54:06;;;;;;;11.07;4.10;;;17.30;99.90;;;;;;4999296;28;20025;-68
2023/07/23 04:56:31;;;;;;;7.70;4.10;;;17.30;99.90;;;;;;5000707;28;20022;-68
2023/07/23 04:58:57;;;;;;;8.02;3.35;;;17.30;99.90;;;;;;5000817;28;20022;-68
2023/07/23 05:01:23;;;;;;;7.63;3.35;;;17.20;99.90;;;;;;4999717;28;20066;-68
2023/07/23 05:03:49;;;;;;;9.27;3.58;;;17.30;99.90;;;;;;5000891;28;20065;-68
2023/07/23 05:06:14;;;;;;;8.77;3.70;;;17.30;99.90;;;;;;4999698;28;20029;-68
2023/07/23 05:08:40;;;;;;;4.35;3.05;;;17.50;99.90;;;;;;5000810;28;20023;-68
2023/07/23 05:11:05;;;;;;;8.55;3.65;;;17.50;99.90;;;;;;4999673;28;20033;-68
2023/07/23 05:13:32;;;;;;;10.80;3.53;;;17.40;99.90;;;;;;5000629;28;20026;-68
2023/07/23 05:15:59;;;;;;;6.00;3.13;;;17.50;99.90;;;;;;4999465;28;20030;-68
2023/07/23 05:18:26;;;;;;;10.20;3.50;;;17.60;99.90;;;;;;5000789;28;20026;-68
2023/07/23 05:20:52;;;;;;;7.13;3.35;;;17.70;99.90;;;;;;5000368;28;20030;-68
2023/07/23 05:23:21;;;;;;;6.07;3.22;;;17.80;99.90;;;;;;4999442;28;20030;-68
2023/07/23 05:25:47;;;;;;;6.85;3.60;;;17.90;99.90;;;;;;4999349;28;20106;-68
2023/07/23 05:28:13;;;;;;;7.13;3.38;;;18.00;99.90;;;;;;5000463;28;20030;-68
2023/07/23 05:30:39;;;;;;;8.65;3.80;;;18.00;99.90;;;;;;4999271;28;20023;-68
2023/07/23 05:33:04;;;;;;;5.68;3.30;;;18.10;99.90;;;;;;4999245;28;20037;-68
2023/07/23 05:35:30;;;;;;;6.45;3.10;;;18.30;99.90;;;;;;5000111;28;20033;-67
2023/07/23 05:37:55;;;;;;;7.53;3.47;;;18.40;99.90;;;;;;4999964;28;20049;-68
2023/07/23 05:40:21;;;;;;;5.40;2.92;;;18.40;99.90;;;;;;4999572;28;20029;-67
2023/07/23 05:42:47;;;;;;;6.00;3.35;;;18.30;99.90;;;;;;4999046;28;20167;-67
2023/07/23 05:45:12;;;;;;;11.07;3.45;;;18.30;99.90;;;;;;4999031;28;20018;-68
2023/07/23 05:47:38;;;;;;;6.20;3.67;;;18.30;99.90;;;;;;4999992;28;20072;-67
2023/07/23 05:50:04;;;;;;;8.70;4.75;;;18.40;99.90;;;;;;4998961;28;20022;-67
2023/07/23 05:52:30;;;;;;;6.30;3.72;;;18.40;99.90;;;;;;4999850;28;20030;-68
2023/07/23 05:54:55;;;;;;;6.35;3.65;;;18.40;99.90;;;;;;4999735;28;20097;-67
2023/07/23 05:57:21;;;;;;;6.18;3.25;;;18.40;99.90;;;;;;4998807;28;20033;-68
2023/07/23 05:59:46;;;;;;;6.15;3.05;;;18.40;99.90;;;;;;4998731;28;20038;-69
2023/07/23 06:02:12;;;;;;;7.97;3.30;;;18.50;99.90;;;;;;4998719;28;20033;-69
2023/07/23 06:04:41;;;;;;;5.97;3.50;;;18.60;99.90;;;;;;4998473;28;20038;-69
2023/07/23 06:07:07;;;;;;;4.45;3.22;;;18.60;99.90;;;;;;4998703;28;20015;-69
2023/07/23 06:09:33;;;;;;;9.82;3.30;;;18.80;99.90;;;;;;4998706;28;20018;-69
2023/07/23 06:11:58;;;;;;;7.80;3.78;;;18.80;99.90;;;;;;4999500;28;20040;-69
2023/07/23 06:14:24;;;;;;;6.05;3.25;;;18.90;99.90;;;;;;4999254;28;20057;-69
2023/07/23 06:16:49;;;;;;;6.70;4.25;;;19.00;99.90;;;;;;4998682;28;20026;-69
2023/07/23 06:19:15;;;;;;;11.63;3.72;;;19.10;99.90;;;;;;4998430;28;20030;-70
2023/07/23 06:21:40;;;;;;;6.43;3.05;;;19.20;99.90;;;;;;4999288;28;20030;-69
2023/07/23 06:24:06;;;;;;;4.10;3.15;;;19.30;99.90;;;;;;4999038;28;20023;-69
2023/07/23 06:26:31;;;;;;;6.80;3.13;;;19.40;99.90;;;;;;4998617;28;20026;-69
2023/07/23 06:28:57;;;;;;;5.68;2.88;;;19.50;99.90;;;;;;4998269;28;20026;-69
2023/07/23 06:31:22;;;;;;;7.15;3.00;;;19.70;99.90;;;;;;4998499;28;20023;-69
2023/07/23 06:33:48;;;;;;;5.05;3.10;;;20.10;99.90;;;;;;4998483;28;20092;-69
2023/07/23 06:36:13;;;;;;;5.72;3.30;;;20.50;99.90;;;;;;4998042;28;20060;-69
2023/07/23 06:38:39;;;;;;;4.32;2.65;;;20.70;99.90;;;;;;4998102;28;20057;-69
2023/07/23 06:41:05;;;;;;;8.90;3.20;;;20.90;99.90;;;;;;4998112;28;20041;-69
2023/07/23 06:43:31;;;;;;;6.97;3.00;;;21.00;99.90;;;;;;4997787;28;20106;-69
2023/07/23 06:45:56;;;;;;;5.40;2.70;;;21.20;99.90;;;;;;4997816;28;20138;-69
2023/07/23 06:48:27;;;;;;;7.78;2.92;;;21.30;99.90;;;;;;4997756;28;20019;-69
2023/07/23 06:50:53;;;;;;;4.70;2.35;;;21.50;99.90;;;;;;4997992;28;20022;-69
2023/07/23 06:53:19;;;;;;;5.20;2.40;;;21.60;99.90;;;;;;4998774;28;20037;-69
2023/07/23 06:55:59;;;;;;;4.30;2.30;;;21.70;99.90;;;;;;4997616;28;20023;-69
2023/07/23 06:58:26;;;;;;;6.53;2.05;;;21.80;99.90;;;;;;4997663;28;20033;-69
2023/07/23 07:00:52;;;;;;;2.55;1.85;;;21.70;99.90;;;;;;4997579;28;20080;-69
2023/07/23 07:03:17;;;;;;;3.15;2.10;;;21.80;99.90;;;;;;4997777;28;20027;-69
2023/07/23 07:05:43;;;;;;;3.03;1.90;;;21.70;99.90;;;;;;4998008;28;20026;-69
2023/07/23 07:08:08;;;;;;;2.53;1.88;;;21.70;99.90;;;;;;4998268;28;20022;-69
2023/07/23 07:10:34;;;;;;;5.40;2.10;;;21.70;99.90;;;;;;4997430;28;20022;-69
2023/07/23 07:12:59;;;;;;;3.35;1.58;;;21.70;99.90;;;;;;4997832;28;20026;-69
2023/07/23 07:15:25;;;;;;;4.05;2.08;;;21.70;99.90;;;;;;4997122;28;20121;-69
2023/07/23 07:17:51;;;;;;;2.70;1.92;;;21.70;99.90;;;;;;4998081;28;20030;-69
2023/07/23 07:20:17;;;;;;;2.83;1.77;;;21.60;99.90;;;;;;4998506;28;20022;-69
2023/07/23 07:22:42;;;;;;;4.53;1.90;;;21.60;99.90;;;;;;4997994;28;20077;-69
2023/07/23 07:25:08;;;;;;;4.15;2.35;;;21.60;99.90;;;;;;4997192;28;20030;-69
2023/07/23 07:27:33;;;;;;;5.28;2.30;;;21.70;99.90;;;;;;4997333;28;20026;-70
2023/07/23 07:29:59;;;;;;;5.68;2.05;;;21.80;99.90;;;;;;4997002;28;20026;-69
2023/07/23 07:32:24;;;;;;;2.60;1.80;;;21.90;99.90;;;;;;4997706;28;20117;-69
2023/07/23 07:34:50;;;;;;;2.75;2.10;;;21.90;99.90;;;;;;4997229;28;20027;-69
2023/07/23 07:37:15;;;;;;;5.30;2.45;;;22.00;99.90;;;;;;4997078;28;20026;-70
2023/07/23 07:39:41;;;;;;;6.85;1.83;;;22.20;99.90;;;;;;4997706;28;20026;-69
2023/07/23 07:42:07;;;;;;;3.40;2.17;;;22.20;99.90;;;;;;4996871;28;20026;-69
2023/07/23 07:44:33;;;;;;;9.55;2.25;;;22.10;99.90;;;;;;4997840;28;20022;-69
2023/07/23 07:46:58;;;;;;;2.72;1.90;;;22.10;99.90;;;;;;4997982;28;20022;-70
2023/07/23 07:49:24;;;;;;;5.47;2.17;;;22.10;99.90;;;;;;4996732;28;20030;-69
2023/07/23 07:51:49;;;;;;;3.30;2.38;;;22.10;99.90;;;;;;4996769;28;20050;-69
2023/07/23 07:54:15;;;;;;;5.15;2.25;;;22.10;99.90;;;;;;4997106;28;20023;-69
2023/07/23 07:56:43;;;;;;;3.60;2.17;;;22.20;99.90;;;;;;4997557;28;20022;-69
2023/07/23 07:59:11;;;;;;;6.97;2.30;;;22.20;99.90;;;;;;4996972;28;20126;-69
2023/07/23 08:01:37;;;;;;;2.13;1.63;;;22.30;99.90;;;;;;4996544;28;20027;-69
2023/07/23 08:04:06;;;;;;;2.72;1.92;;;22.40;99.90;;;;;;4996700;28;20033;-69
2023/07/23 08:06:37;;;;;;;4.40;1.85;;;22.40;99.90;;;;;;4996448;28;20018;-69
2023/07/23 08:09:03;;;;;;;2.67;1.73;;;22.50;99.90;;;;;;4996665;28;20023;-69
2023/07/23 08:11:30;;;;;;;4.47;2.00;;;22.60;99.90;;;;;;4996587;28;20027;-69
2023/07/23 08:13:56;;;;;;;4.82;2.00;;;22.60;99.90;;;;;;4996890;28;20070;-69
2023/07/23 08:16:22;;;;;;;3.88;1.90;;;22.80;99.90;;;;;;4996591;28;20033;-69
2023/07/23 08:18:48;;;;;;;2.47;1.83;;;22.90;99.90;;;;;;4996493;28;20027;-69
2023/07/23 08:21:14;;;;;;;4.50;1.92;;;22.90;99.90;;;;;;4996694;28;20031;-70
2023/07/23 08:23:40;;;;;;;5.78;2.40;;;22.80;99.90;;;;;;4996639;28;20109;-67
2023/07/23 08:26:07;;;;;;;5.03;2.33;;;22.70;99.90;;;;;;4996435;28;20085;-67
2023/07/23 08:28:37;;;;;;;4.53;2.03;;;22.90;99.90;;;;;;5000224;28;20030;-67
2023/07/23 08:31:04;;;;;;;4.85;1.92;;;23.00;99.90;;;;;;5001742;28;20053;-67
2023/07/23 08:33:31;;;;;;;5.63;2.15;;;23.00;99.90;;;;;;5000583;28;20038;-67
2023/07/23 08:35:58;;;;;;;4.25;1.80;;;23.00;99.90;;;;;;5000762;28;20117;-67
2023/07/23 08:38:25;;;;;;;4.00;1.90;;;23.00;99.90;;;;;;5001286;28;20030;-67
2023/07/23 08:41:00;;;;;;;3.80;2.10;;;22.90;99.90;;;;;;5000107;28;20023;-68
2023/07/23 08:43:48;;;;;;;4.78;2.33;;;22.90;99.90;;;;;;5001266;28;20030;-67
2023/07/23 08:46:21;;;;;;;3.50;2.17;;;22.80;99.90;;;;;;5001096;28;20022;-67
2023/07/23 08:48:58;;;;;;;3.05;1.92;;;22.80;99.90;;;;;;5001415;28;20030;-67
2023/07/23 08:51:26;;;;;;;3.38;2.20;;;22.60;99.90;;;;;;5001163;28;20023;-67
2023/07/23 08:53:52;;;;;;;2.05;1.50;;;22.60;99.90;;;;;;4999945;28;20027;-67
2023/07/23 08:56:18;;;;;;;4.20;1.90;;;22.50;99.90;;;;;;5000701;28;20066;-67
2023/07/23 08:58:45;;;;;;;6.30;1.60;;;22.60;99.90;;;;;;5000355;28;20065;-67
2023/07/23 09:01:15;;;;;;;5.10;1.92;;;22.60;99.90;;;;;;5000195;28;20061;-67
2023/07/23 09:03:41;;;;;;;3.63;2.47;;;22.50;99.90;;;;;;5001011;28;20029;-67
2023/07/23 09:06:08;;;;;;;4.75;2.17;;;22.50;99.90;;;;;;5000221;28;20049;-67
2023/07/23 09:08:34;;;;;;;7.68;2.65;;;22.50;99.90;;;;;;5000560;28;20022;-67
2023/07/23 09:11:04;;;;;;;4.47;2.10;;;22.50;99.90;;;;;;5000541;28;20093;-67
2023/07/23 09:13:37;;;;;;;4.18;2.17;;;22.40;99.90;;;;;;4999589;28;20137;-67
2023/07/23 09:16:04;;;;;;;2.78;2.00;;;22.30;99.90;;;;;;4999706;28;20026;-67
2023/07/23 09:18:31;;;;;;;3.20;2.50;;;22.20;99.90;;;;;;5000392;28;20026;-67
2023/07/23 09:20:57;;;;;;;2.72;2.20;;;22.20;99.90;;;;;;4999497;28;20064;-67
2023/07/23 09:23:26;;;;;;;3.33;2.17;;;22.20;99.90;;;;;;5000435;28;20026;-67
2023/07/23 09:25:51;;;;;;;6.43;2.38;;;22.00;99.90;;;;;;4999349;28;20037;-67
2023/07/23 09:28:22;;;;;;;3.80;1.92;;;21.90;99.90;;;;;;4999349;28;20023;-68
2023/07/23 09:30:47;;;;;;;4.38;1.92;;;21.90;99.90;;;;;;5000289;28;20022;-68
2023/07/23 09:33:13;;;;;;;3.90;2.22;;;21.90;99.90;;;;;;4999076;28;20037;-68
2023/07/23 09:35:39;;;;;;;2.00;1.80;;;21.80;99.90;;;;;;4999466;28;20030;-68
2023/07/23 09:38:05;;;;;;;3.60;2.17;;;21.70;99.90;;;;;;4999269;28;20022;-68
2023/07/23 09:40:35;;;;;;;2.75;2.30;;;21.60;99.90;;;;;;4998282;28;20033;-68
2023/07/23 09:43:01;;;;;;;5.35;2.40;;;21.50;99.90;;;;;;4998959;28;20086;-68
2023/07/23 09:45:30;;;;;;;4.32;2.08;;;21.60;99.90;;;;;;4999242;28;20029;-68
2023/07/23 09:48:01;;;;;;;2.75;1.80;;;21.50;99.90;;;;;;4999812;28;20101;-68
2023/07/23 09:50:27;;;;;;;4.40;2.33;;;21.40;99.90;;;;;;4999490;28;20029;-68
2023/07/23 09:52:52;;;;;;;5.63;2.13;;;21.30;99.90;;;;;;4999964;28;20105;-68
2023/07/23 09:55:20;;;;;;;4.97;2.45;;;21.10;99.90;;;;;;4999731;28;20093;-68
2023/07/23 09:57:51;;;;;;;4.63;2.00;;;21.00;99.90;;;;;;4999583;28;20026;-68
2023/07/23 10:00:18;;;;;;;4.95;1.92;;;21.00;99.90;;;;;;4999684;28;20085;-68
2023/07/23 10:02:47;;;;;;;4.82;1.80;;;21.00;99.90;;;;;;4999670;28;20030;-68
2023/07/23 10:05:15;;;;;;;2.53;1.90;;;20.90;99.90;;;;;;4998568;28;20028;-68
2023/07/23 10:07:41;;;;;;;5.10;2.47;;;20.90;99.90;;;;;;4998677;28;20022;-68
2023/07/23 10:10:07;;;;;;;7.65;2.20;;;20.90;99.90;;;;;;4998489;28;20026;-68
2023/07/23 10:12:32;;;;;;;3.30;1.58;;;20.90;99.90;;;;;;4999715;28;20035;-68
2023/07/23 10:14:58;;;;;;;4.25;1.95;;;21.10;99.90;;;;;;4998578;28;20022;-68
2023/07/23 10:17:25;;;;;;;5.10;2.13;;;21.10;99.90;;;;;;4998390;28;20030;-68
2023/07/23 10:19:51;;;;;;;2.00;1.70;;;21.00;99.90;;;;;;4998437;28;20176;-68
2023/07/23 10:22:17;;;;;;;3.88;1.60;;;21.00;99.90;;;;;;4998339;28;20026;-69
2023/07/23 10:24:43;;;;;;;3.88;2.17;;;21.10;99.90;;;;;;4998281;28;20045;-68
2023/07/23 10:27:16;;;;;;;5.22;1.83;;;21.20;99.90;;;;;;5021621;23;20042;-72
2023/07/23 10:30:01;;;;;;;3.45;2.00;;;21.30;99.90;;;;;;4998405;28;20023;-72
2023/07/23 10:32:27;;;;;;;4.00;1.90;;;21.30;99.90;;;;;;4999214;28;20027;-72
2023/07/23 10:34:54;;;;;;;7.95;1.83;;;21.30;99.90;;;;;;4998935;28;20113;-72
2023/07/23 10:37:21;;;;;;;2.83;1.80;;;21.30;99.90;;;;;;5014312;28;20037;-72
2023/07/23 10:39:52;;;;;;;5.45;2.17;;;21.40;99.90;;;;;;4997921;28;20030;-72
2023/07/23 10:42:36;;;;;;;3.63;2.10;;;21.50;99.90;;;;;;4997834;28;20076;-72
2023/07/23 10:45:25;;;;;;;6.40;2.20;;;21.30;99.90;;;;;;4998611;28;20037;-72
2023/07/23 10:47:56;;;;;;;2.58;1.70;;;21.00;99.90;;;;;;4999068;28;20030;-72
2023/07/23 10:50:24;;;;;;;2.67;1.65;;;20.60;99.90;;;;;;4998016;28;20026;-72
2023/07/23 10:52:52;;;;;;;2.30;1.77;;;20.30;99.90;;;;;;4998577;28;20061;-72
2023/07/23 10:55:46;;;;;;;4.53;2.17;;;20.30;99.90;;;;;;4997720;28;20064;-72
2023/07/23 10:58:14;;;;;;;2.28;1.95;;;20.40;99.90;;;;;;4998913;28;20027;-72
2023/07/23 11:00:47;;;;;;;4.13;1.90;;;20.60;99.90;;;;;;4998549;28;20027;-72
2023/07/23 11:03:20;;;;;;;3.10;1.98;;;21.00;99.90;;;;;;4998404;28;20113;-72
2023/07/23 11:05:46;;;;;;;8.57;3.03;;;21.30;99.90;;;;;;4997487;28;20030;-72
2023/07/23 11:08:13;;;;;;;4.70;1.80;;;21.60;99.90;;;;;;4997856;28;20057;-72
2023/07/23 11:10:59;;;;;;;3.17;1.88;;;21.80;99.90;;;;;;4998918;28;20109;-72
2023/07/23 11:13:36;;;;;;;3.15;1.65;;;22.00;99.90;;;;;;4998315;28;20053;-72
2023/07/23 11:16:03;;;;;;;2.88;1.83;;;22.10;99.90;;;;;;4997477;28;20026;-72
2023/07/23 11:18:30;;;;;;;3.55;2.05;;;22.30;99.90;;;;;;4998475;28;20026;-72
2023/07/23 11:20:57;;;;;;;3.70;1.70;;;22.50;99.90;;;;;;4997980;28;20027;-72
2023/07/23 11:23:25;;;;;;;2.88;1.88;;;23.10;99.90;;;;;;4997141;28;20057;-72
2023/07/23 11:25:51;;;;;;;1.83;1.55;;;23.60;99.90;;;;;;4998135;28;20033;-72
2023/07/23 11:28:18;;;;;;;3.90;2.55;;;23.90;99.90;;;;;;4997207;28;20027;-72
2023/07/23 11:30:44;;;;;;;2.95;2.10;;;24.00;99.90;;;;;;4997391;28;20030;-72
2023/07/23 11:33:12;;;;;;;3.53;1.58;;;23.80;99.90;;;;;;4997158;28;20041;-72
2023/07/23 11:35:37;;;;;;;2.42;1.67;;;23.60;99.90;;;;;;4997042;28;20030;-72
2023/07/23 11:38:04;;;;;;;1.88;1.63;;;23.40;99.90;;;;;;4997271;28;20073;-72
2023/07/23 11:40:30;;;;;;;2.63;1.40;;;23.30;99.90;;;;;;4997051;28;20045;-72
2023/07/23 11:42:56;;;;;;;5.03;1.77;;;23.20;99.90;;;;;;4996848;28;20120;-72
2023/07/23 11:45:22;;;;;;;2.08;1.48;;;23.20;99.90;;;;;;4997277;28;20057;-72
2023/07/23 11:47:52;;;;;;;3.05;1.40;;;23.00;99.90;;;;;;4997690;28;20026;-72
2023/07/23 11:50:19;;;;;;;3.00;1.67;;;22.80;99.90;;;;;;4997724;28;20054;-72
2023/07/23 11:52:49;;;;;;;2.00;1.73;;;22.70;99.90;;;;;;4996713;28;20027;-72
2023/07/23 11:55:21;;;;;;;2.85;1.60;;;22.70;99.90;;;;;;4997251;28;20118;-72
2023/07/23 11:57:55;;;;;;;2.47;1.48;;;22.70;99.90;;;;;;4997562;28;20034;-72
2023/07/23 12:00:35;;;;;;;2.72;1.80;;;22.70;99.90;;;;;;4996664;28;20022;-72
2023/07/23 12:03:02;;;;;;;2.22;1.50;;;22.70;99.90;;;;;;4996191;28;20113;-72
2023/07/23 12:05:28;;;;;;;2.33;1.35;;;22.80;99.90;;;;;;4996844;28;20077;-72
2023/07/23 12:07:54;;;;;;;4.53;1.80;;;22.90;99.90;;;;;;4997801;28;20026;-72
2023/07/23 12:10:20;;;;;;;4.72;1.50;;;23.00;99.90;;;;;;4996738;28;20080;-72
2023/07/23 12:12:46;;;;;;;2.85;1.52;;;22.90;99.90;;;;;;4996572;28;20026;-72
2023/07/23 12:15:16;;;;;;;3.65;2.10;;;22.90;99.90;;;;;;4996675;28;20027;-72
2023/07/23 12:17:43;;;;;;;3.33;1.60;;;22.90;99.90;;;;;;4997551;28;20029;-72
2023/07/23 12:20:09;;;;;;;3.47;1.73;;;22.90;99.90;;;;;;4996550;28;20165;-72
2023/07/23 12:22:56;;;;;;;3.13;1.75;;;22.80;99.90;;;;;;4997114;28;20031;-72
2023/07/23 12:25:24;;;;;;;5.47;1.92;;;22.90;99.90;;;;;;4996360;28;20034;-72
2023/07/23 12:27:50;;;;;;;3.30;1.60;;;22.90;99.90;;;;;;4996823;28;20061;-72
2023/07/23 12:30:17;;;;;;;3.60;1.92;;;22.90;99.90;;;;;;4997317;28;20112;-72
2023/07/23 12:32:44;;;;;;;2.28;1.52;;;22.90;99.90;;;;;;4996770;28;20026;-72
2023/07/23 12:35:09;;;;;;;4.10;2.28;;;22.90;99.90;;;;;;4997472;28;20030;-72
2023/07/23 12:37:35;;;;;;;2.63;1.85;;;23.00;99.90;;;;;;4997339;28;20015;-72
2023/07/23 12:40:04;;;;;;;2.00;1.67;;;23.00;99.90;;;;;;4996497;28;20026;-72
2023/07/23 12:42:31;;;;;;;2.75;1.40;;;22.90;99.90;;;;;;4997277;28;20105;-72
2023/07/23 12:44:56;;;;;;;2.60;1.70;;;23.00;99.90;;;;;;4996486;28;20019;-72